createdAt,value
2018-11-20T00:01:40.395Z,100838.67
2018-11-20T00:07:01.814Z,100855.60
2018-11-20T00:12:10.170Z,100856.88
2018-11-20T00:17:34.652Z,100848.62
2018-11-20T00:22:43.752Z,100856.88
2018-11-20T00:27:47.779Z,100850.80
2018-11-20T00:32:59.122Z,100840.00
2018-11-20T00:38:01.619Z,100835.66
2018-11-20T00:43:19.887Z,100846.07
2018-11-20T00:48:45.793Z,100845.62
2018-11-20T00:53:48.376Z,100862.95
2018-11-20T00:58:48.426Z,100898.05
2018-11-20T01:03:56.354Z,100905.40
2018-11-20T01:09:03.330Z,100898.02
2018-11-20T01:14:09.581Z,100888.88
2018-11-20T01:19:13.868Z,100875.53
2018-11-20T01:24:11.737Z,100878.10
2018-11-20T01:29:20.364Z,100877.67
2018-11-20T01:34:46.767Z,100858.60
2018-11-20T01:40:00.136Z,100840.37
2018-11-20T01:45:06.196Z,100850.77
2018-11-20T01:50:14.783Z,100868.55
2018-11-20T01:55:24.800Z,100882.38
2018-11-20T02:00:31.236Z,100868.97
2018-11-20T02:05:34.219Z,100877.59
2018-11-20T02:10:48.503Z,100856.80
2018-11-20T02:16:14.156Z,100863.72
2018-11-20T02:21:24.807Z,100883.27
2018-11-20T02:26:31.319Z,100906.24
2018-11-20T02:31:57.465Z,100906.24
2018-11-20T02:37:17.085Z,100904.52
2018-11-20T02:42:39.752Z,100913.20
2018-11-20T02:48:04.452Z,100898.90
2018-11-20T02:53:12.615Z,100906.31
2018-11-20T02:58:17.762Z,100902.38
2018-11-20T03:03:21.507Z,100920.48
2018-11-20T03:08:47.421Z,100930.83
2018-11-20T03:13:55.252Z,100927.03
2018-11-20T03:19:13.460Z,100931.82
2018-11-20T03:24:30.391Z,100921.00
2018-11-20T03:30:13.180Z,100944.71
2018-11-20T03:35:19.102Z,100968.81
2018-11-20T03:40:31.686Z,100971.41
2018-11-20T03:45:51.146Z,100963.35
2018-11-20T03:50:57.513Z,100974.64
2018-11-20T03:56:06.071Z,100965.95
2018-11-20T04:01:16.622Z,100983.75
2018-11-20T04:06:24.347Z,100984.58
2018-11-20T04:11:28.030Z,100995.45
2018-11-20T04:16:34.648Z,101008.02
2018-11-20T04:21:40.835Z,101009.73
2018-11-20T04:27:03.957Z,101024.34
2018-11-20T04:32:12.818Z,101026.58
2018-11-20T04:37:25.021Z,101015.74
2018-11-20T04:42:39.007Z,100995.84
2018-11-20T04:47:45.004Z,100996.81
2018-11-20T04:52:52.853Z,100999.59
2018-11-20T04:58:02.223Z,101001.61
2018-11-20T05:03:10.452Z,101011.75
2018-11-20T05:08:33.527Z,101038.94
2018-11-20T05:13:43.800Z,101042.14
2018-11-20T05:18:52.127Z,101041.95
2018-11-20T05:23:59.748Z,101067.84
2018-11-20T05:29:09.777Z,101066.27
2018-11-20T05:34:37.048Z,101080.59
2018-11-20T05:39:42.606Z,101077.63
2018-11-20T05:45:02.047Z,101069.91
2018-11-20T05:50:07.501Z,101066.81
2018-11-20T05:55:16.755Z,101068.47
2018-11-20T06:00:20.598Z,101074.45
2018-11-20T06:05:29.125Z,101073.70
2018-11-20T06:10:44.113Z,101075.86
2018-11-20T06:15:48.565Z,101079.75
2018-11-20T06:20:54.571Z,101059.37
2018-11-20T06:25:59.217Z,101069.22
2018-11-20T06:31:07.185Z,101066.67
2018-11-20T06:36:17.713Z,101051.13
2018-11-20T06:41:22.830Z,101062.34
2018-11-20T06:46:44.039Z,101080.63
2018-11-20T06:52:08.110Z,101082.00
2018-11-20T06:57:30.085Z,101079.95
2018-11-20T07:02:53.900Z,101077.42
2018-11-20T07:08:20.262Z,101072.61
2018-11-20T07:14:00.400Z,101064.34
2018-11-20T07:19:03.278Z,101051.83
2018-11-20T07:24:09.629Z,101068.31
2018-11-20T07:29:23.830Z,101069.55
2018-11-20T07:34:38.055Z,101064.42
2018-11-20T07:39:53.977Z,101046.63
2018-11-20T07:45:14.202Z,101042.78
2018-11-20T07:50:22.206Z,101038.43
2018-11-20T07:55:35.986Z,101048.06
2018-11-20T08:00:47.272Z,101052.84
2018-11-20T08:06:01.248Z,101049.36
2018-11-20T08:12:55.928Z,101054.67
2018-11-20T08:18:02.638Z,101062.48
2018-11-20T08:23:16.339Z,101062.95
2018-11-20T08:28:24.954Z,101052.12
2018-11-20T08:33:38.804Z,101042.20
2018-11-20T08:38:52.896Z,101052.61
2018-11-20T08:43:56.549Z,101054.79
2018-11-20T08:49:01.200Z,101060.84
2018-11-20T08:54:02.967Z,101061.34
2018-11-20T08:59:17.812Z,101050.48
2018-11-20T09:04:33.981Z,101050.48
2018-11-20T09:09:41.802Z,101052.22
2018-11-20T09:14:44.726Z,101046.19
2018-11-20T09:20:11.793Z,101053.98
2018-11-20T09:25:16.402Z,101044.84
2018-11-20T09:30:41.012Z,101017.48
2018-11-20T09:35:45.900Z,101005.78
2018-11-20T09:41:41.542Z,101004.91
2018-11-20T09:46:58.276Z,100998.81
2018-11-20T09:52:03.219Z,100998.81
2018-11-20T09:57:08.694Z,100997.51
2018-11-20T10:02:24.927Z,100997.51
2018-11-20T10:07:29.726Z,100989.27
2018-11-20T10:12:52.045Z,101014.02
2018-11-20T10:18:01.375Z,100998.41
2018-11-20T10:23:06.927Z,100987.88
2018-11-20T10:28:14.904Z,100987.88
2018-11-20T10:33:32.812Z,100984.73
2018-11-20T10:38:37.532Z,100978.63
2018-11-20T10:43:42.532Z,100988.27
2018-11-20T10:48:49.594Z,100969.06
2018-11-20T10:53:55.374Z,100965.66
2018-11-20T10:59:04.147Z,100954.78
2018-11-20T11:04:18.502Z,100954.78
2018-11-20T11:09:38.579Z,100946.95
2018-11-20T11:14:45.355Z,100929.16
2018-11-20T11:20:06.237Z,100929.16
2018-11-20T11:25:28.356Z,100933.47
2018-11-20T11:30:42.986Z,100927.33
2018-11-20T11:35:46.776Z,100923.50
2018-11-20T11:40:52.502Z,100917.28
2018-11-20T11:46:03.631Z,100919.01
2018-11-20T11:51:09.152Z,100926.05
2018-11-20T11:56:11.694Z,100916.86
2018-11-20T12:01:27.233Z,100917.87
2018-11-20T12:06:38.681Z,100912.11
2018-11-20T12:11:52.376Z,100912.11
2018-11-20T12:17:09.124Z,100916.51
2018-11-20T12:22:15.905Z,100866.06
2018-11-20T12:27:27.246Z,100901.61
2018-11-20T12:32:32.746Z,100882.41
2018-11-20T12:38:01.763Z,100882.41
2018-11-20T12:43:04.611Z,100888.94
2018-11-20T12:48:12.189Z,100891.46
2018-11-20T12:53:15.312Z,100900.77
2018-11-20T12:58:22.150Z,100894.19
2018-11-20T13:03:41.125Z,100894.55
2018-11-20T13:08:58.569Z,100889.73
2018-11-20T13:14:04.486Z,100893.58
2018-11-20T13:19:12.588Z,100899.77
2018-11-20T13:24:25.709Z,100895.06
2018-11-20T13:29:31.855Z,100902.27
2018-11-20T13:34:51.213Z,100903.12
2018-11-20T13:39:54.485Z,100889.23
2018-11-20T13:45:04.373Z,100883.63
2018-11-20T13:50:14.064Z,100883.23
2018-11-20T13:55:32.169Z,100882.38
2018-11-20T14:00:59.445Z,100880.73
2018-11-20T14:06:21.464Z,100870.23
2018-11-20T14:11:24.512Z,100870.23
2018-11-20T14:16:32.897Z,100878.48
2018-11-20T14:21:57.090Z,100858.45
2018-11-20T14:27:13.581Z,100858.45
2018-11-20T14:32:33.029Z,100863.67
2018-11-20T14:37:48.133Z,100835.89
2018-11-20T14:42:51.513Z,100835.89
2018-11-20T14:47:57.491Z,100846.35
2018-11-20T14:53:19.358Z,100869.84
2018-11-20T14:58:29.089Z,100848.20
2018-11-20T15:03:46.333Z,100857.70
2018-11-20T15:09:20.203Z,100873.27
2018-11-20T15:14:26.461Z,100872.00
2018-11-20T15:19:32.606Z,100846.78
2018-11-20T15:24:36.991Z,100850.70
2018-11-20T15:30:00.638Z,100842.94
2018-11-20T15:35:10.442Z,100842.94
2018-11-20T15:40:36.547Z,100847.75
2018-11-20T15:45:42.252Z,100846.54
2018-11-20T15:50:47.577Z,100833.39
2018-11-20T15:55:49.292Z,100840.46
2018-11-20T16:00:59.008Z,100847.47
2018-11-20T16:06:00.953Z,100853.94
2018-11-20T16:11:05.541Z,100861.34
2018-11-20T16:16:13.751Z,100862.29
2018-11-20T16:21:33.645Z,100864.07
2018-11-20T16:26:34.909Z,100851.82
2018-11-20T16:31:38.182Z,100846.32
2018-11-20T16:37:06.989Z,100843.61
2018-11-20T16:42:20.143Z,100823.72
2018-11-20T16:47:25.881Z,100827.63
2018-11-20T16:52:29.364Z,100841.13
2018-11-20T16:57:44.545Z,100837.66
2018-11-20T17:02:51.664Z,100836.31
2018-11-20T17:08:12.379Z,100834.11
2018-11-20T17:13:13.067Z,100829.34
2018-11-20T17:18:23.034Z,100835.48
2018-11-20T17:23:36.897Z,100830.19
2018-11-20T17:29:06.121Z,100830.57
2018-11-20T17:34:13.230Z,100813.58
2018-11-20T17:39:34.420Z,100796.75
2018-11-20T17:45:03.314Z,100801.09
2018-11-20T17:50:21.360Z,100798.42
2018-11-20T17:55:33.516Z,100799.77
2018-11-20T18:00:39.250Z,100800.58
2018-11-20T18:05:58.111Z,100807.65
2018-11-20T18:11:16.118Z,100810.68
2018-11-20T18:16:29.020Z,100802.34
2018-11-20T18:21:37.029Z,100803.69
2018-11-20T18:26:38.179Z,100798.44
2018-11-20T18:31:47.826Z,100794.12
2018-11-20T18:36:58.604Z,100806.25
2018-11-20T18:42:09.661Z,100792.31
2018-11-20T18:47:06.573Z,100794.56
2018-11-20T18:52:31.478Z,100796.27
2018-11-20T18:57:42.640Z,100801.51
2018-11-20T19:03:04.153Z,100789.80
2018-11-20T19:08:06.369Z,100784.98
2018-11-20T19:13:28.096Z,100784.98
2018-11-20T19:19:09.445Z,100782.02
2018-11-20T19:24:22.135Z,100785.85
2018-11-20T19:29:29.742Z,100800.63
2018-11-20T19:34:42.580Z,100794.43
2018-11-20T19:39:50.031Z,100799.27
2018-11-20T19:44:58.073Z,100779.68
2018-11-20T19:50:24.161Z,100786.15
2018-11-20T19:55:39.225Z,100783.16
2018-11-20T20:00:53.121Z,100784.38
2018-11-20T20:05:59.128Z,100778.72
2018-11-20T20:11:22.194Z,100788.78
2018-11-20T20:16:28.333Z,100772.12
2018-11-20T20:21:35.232Z,100770.80
2018-11-20T20:26:41.192Z,100778.64
2018-11-20T20:31:44.835Z,100760.45
2018-11-20T20:36:48.567Z,100745.56
2018-11-20T20:41:55.042Z,100737.77
2018-11-20T20:47:02.343Z,100737.77
2018-11-20T20:52:06.304Z,100726.53
2018-11-20T20:57:21.869Z,100726.53
2018-11-20T21:02:30.266Z,100735.23
2018-11-20T21:07:43.167Z,100736.14
2018-11-20T21:12:46.633Z,100735.32
2018-11-20T21:17:57.092Z,100745.27
2018-11-20T21:23:20.324Z,100737.42
2018-11-20T21:28:28.376Z,100737.42
2018-11-20T21:33:51.451Z,100746.08
2018-11-20T21:39:16.939Z,100748.34
2018-11-20T21:44:37.047Z,100737.87
2018-11-20T21:49:44.125Z,100721.89
2018-11-20T21:54:49.346Z,100720.14
2018-11-20T21:59:55.633Z,100714.45
2018-11-20T22:05:00.523Z,100712.29
2018-11-20T22:10:03.508Z,100718.35
2018-11-20T22:15:09.304Z,100721.42
2018-11-20T22:20:29.561Z,100723.20
2018-11-20T22:25:34.896Z,100713.62
2018-11-20T22:30:44.860Z,100708.37
2018-11-20T22:35:50.663Z,100720.98
2018-11-20T22:40:57.562Z,100708.37
2018-11-20T22:46:02.647Z,100700.98
2018-11-20T22:51:15.702Z,100695.34
2018-11-20T22:56:23.054Z,100698.39
2018-11-20T23:01:31.796Z,100697.87
2018-11-20T23:06:38.549Z,100709.22
2018-11-20T23:11:26.725Z,100700.54
2018-11-20T23:16:14.344Z,100691.81
2018-11-20T23:21:02.035Z,100691.44
2018-11-20T23:25:47.948Z,100687.06
2018-11-20T23:30:37.712Z,100689.23
2018-11-20T23:35:27.579Z,100682.25
2018-11-20T23:40:15.501Z,100681.34
2018-11-20T23:44:59.612Z,100681.84
2018-11-20T23:49:44.447Z,100688.39
2018-11-20T23:54:34.013Z,100667.97
2018-11-20T23:59:23.589Z,100666.14
